createdAt,value
2022-10-09T00:01:37.551Z,67.78
2022-10-09T00:04:03.897Z,67.77
2022-10-09T00:06:30.231Z,67.77
2022-10-09T00:08:56.590Z,68.08
2022-10-09T00:11:22.906Z,68.07
2022-10-09T00:13:49.253Z,68.01
2022-10-09T00:16:15.655Z,68.00
2022-10-09T00:18:41.932Z,67.76
2022-10-09T00:21:08.255Z,67.85
2022-10-09T00:23:34.573Z,67.90
2022-10-09T00:26:00.894Z,68.04
2022-10-09T00:28:27.299Z,68.07
2022-10-09T00:30:53.693Z,68.31
2022-10-09T00:33:19.910Z,68.53
2022-10-09T00:35:46.230Z,68.65
2022-10-09T00:38:12.573Z,68.79
2022-10-09T00:40:38.891Z,68.94
2022-10-09T00:43:05.215Z,69.09
2022-10-09T00:45:31.540Z,69.19
2022-10-09T00:47:57.914Z,69.15
2022-10-09T00:50:24.228Z,69.39
2022-10-09T00:52:50.933Z,69.38
2022-10-09T00:55:16.909Z,69.07
2022-10-09T00:57:43.235Z,69.03
2022-10-09T01:00:09.572Z,69.08
2022-10-09T01:02:36.032Z,69.10
2022-10-09T01:05:02.234Z,68.86
2022-10-09T01:07:28.576Z,68.71
2022-10-09T01:09:54.896Z,68.73
2022-10-09T01:12:21.236Z,68.92
2022-10-09T01:14:47.690Z,69.14
2022-10-09T01:17:14.012Z,69.42
2022-10-09T01:19:40.346Z,69.54
2022-10-09T01:22:06.687Z,69.35
2022-10-09T01:24:33.005Z,69.45
2022-10-09T01:26:59.350Z,69.78
2022-10-09T01:29:25.689Z,69.89
2022-10-09T01:31:52.017Z,69.64
2022-10-09T01:34:18.381Z,69.55
2022-10-09T01:36:44.705Z,69.42
2022-10-09T01:39:11.023Z,69.59
2022-10-09T01:41:37.383Z,69.74
2022-10-09T01:44:03.721Z,69.80
2022-10-09T01:46:30.160Z,69.62
2022-10-09T01:48:56.362Z,69.66
2022-10-09T01:51:22.706Z,69.91
2022-10-09T01:53:49.042Z,70.31
2022-10-09T01:56:15.385Z,70.27
2022-10-09T01:58:41.700Z,70.32
2022-10-09T02:01:08.086Z,70.29
2022-10-09T02:03:34.351Z,70.47
2022-10-09T02:06:00.675Z,70.20
2022-10-09T02:08:27.016Z,70.26
2022-10-09T02:10:53.361Z,70.03
2022-10-09T02:13:19.696Z,70.06
2022-10-09T02:15:46.098Z,70.01
2022-10-09T02:18:12.354Z,70.05
2022-10-09T02:20:38.686Z,70.21
2022-10-09T02:23:05.042Z,70.40
2022-10-09T02:25:31.388Z,70.65
2022-10-09T02:27:57.721Z,70.54
2022-10-09T02:30:24.068Z,70.66
2022-10-09T02:32:50.606Z,70.41
2022-10-09T02:35:16.756Z,70.38
2022-10-09T02:37:43.074Z,70.36
2022-10-09T02:40:10.874Z,70.45
2022-10-09T02:42:35.795Z,70.45
2022-10-09T02:45:02.117Z,70.56
2022-10-09T02:47:28.497Z,70.56
2022-10-09T02:49:54.834Z,70.58
2022-10-09T02:52:21.169Z,70.85
2022-10-09T02:54:47.514Z,70.95
2022-10-09T02:57:13.830Z,71.06
2022-10-09T02:59:40.177Z,70.87
2022-10-09T03:02:06.662Z,70.92
2022-10-09T03:04:32.844Z,71.04
2022-10-09T03:06:59.209Z,71.29
2022-10-09T03:09:28.194Z,71.32
2022-10-09T03:11:51.864Z,71.13
2022-10-09T03:14:18.192Z,71.07
2022-10-09T03:16:44.513Z,71.19
2022-10-09T03:19:10.886Z,71.41
2022-10-09T03:21:37.226Z,71.66
2022-10-09T03:24:03.561Z,71.86
2022-10-09T03:26:29.900Z,71.98
2022-10-09T03:28:56.220Z,71.84
2022-10-09T03:31:47.034Z,71.89
2022-10-09T03:33:48.920Z,71.68
2022-10-09T03:36:15.259Z,71.56
2022-10-09T03:38:41.601Z,71.57
2022-10-09T03:41:07.943Z,71.71
2022-10-09T03:43:34.268Z,71.82
2022-10-09T03:46:01.259Z,72.02
2022-10-09T03:48:26.980Z,72.08
2022-10-09T03:50:53.298Z,71.78
2022-10-09T03:53:19.644Z,71.87
2022-10-09T03:55:45.984Z,72.08
2022-10-09T03:58:12.315Z,71.87
2022-10-09T04:00:38.701Z,71.68
2022-10-09T04:03:05.086Z,72.01
2022-10-09T04:05:31.339Z,72.31
2022-10-09T04:07:57.700Z,72.17
2022-10-09T04:10:24.014Z,71.91
2022-10-09T04:12:50.706Z,71.97
2022-10-09T04:15:16.685Z,72.03
2022-10-09T04:17:43.036Z,72.10
2022-10-09T04:20:09.382Z,72.01
2022-10-09T04:22:35.790Z,72.11
2022-10-09T04:25:02.112Z,72.00
2022-10-09T04:27:28.439Z,71.95
2022-10-09T04:29:54.777Z,72.22
2022-10-09T04:32:21.099Z,72.38
2022-10-09T04:34:47.423Z,72.26
2022-10-09T04:37:13.778Z,72.33
2022-10-09T04:39:40.119Z,72.28
2022-10-09T04:42:06.446Z,72.18
2022-10-09T04:44:32.788Z,71.91
2022-10-09T04:46:59.109Z,71.98
2022-10-09T04:49:25.620Z,71.99
2022-10-09T04:51:52.077Z,71.73
2022-10-09T04:54:18.402Z,71.75
2022-10-09T04:56:44.813Z,71.60
2022-10-09T04:59:11.245Z,71.83
2022-10-09T05:01:38.606Z,71.94
2022-10-09T05:04:03.910Z,72.29
2022-10-09T05:06:30.234Z,72.23
2022-10-09T05:08:56.598Z,72.15
2022-10-09T05:11:22.943Z,72.19
2022-10-09T05:13:49.280Z,72.11
2022-10-09T05:16:15.635Z,71.86
2022-10-09T05:18:41.974Z,71.76
2022-10-09T05:21:08.313Z,71.80
2022-10-09T05:23:34.624Z,71.83
2022-10-09T05:26:01.008Z,71.53
2022-10-09T05:28:27.406Z,71.46
2022-10-09T05:30:53.664Z,71.22
2022-10-09T05:33:20.056Z,70.84
2022-10-09T05:35:46.343Z,70.43
2022-10-09T05:38:12.680Z,70.15
2022-10-09T05:40:39.010Z,69.61
2022-10-09T05:43:05.353Z,68.98
2022-10-09T05:45:31.762Z,68.38
2022-10-09T05:47:58.065Z,67.75
2022-10-09T05:50:24.404Z,67.25
2022-10-09T05:52:50.943Z,66.70
2022-10-09T05:55:17.105Z,66.16
2022-10-09T05:57:43.440Z,65.64
2022-10-09T06:00:09.816Z,64.98
2022-10-09T06:02:36.260Z,64.32
2022-10-09T06:05:02.508Z,63.84
2022-10-09T06:07:28.870Z,63.51
2022-10-09T06:09:55.211Z,63.08
2022-10-09T06:12:21.534Z,63.16
2022-10-09T06:14:47.862Z,62.95
2022-10-09T06:17:14.225Z,62.64
2022-10-09T06:19:40.559Z,61.77
2022-10-09T06:22:06.902Z,61.31
2022-10-09T06:24:33.255Z,60.86
2022-10-09T06:26:59.597Z,60.33
2022-10-09T06:29:25.935Z,59.88
2022-10-09T06:31:52.263Z,59.55
2022-10-09T06:34:18.582Z,59.17
2022-10-09T06:36:44.950Z,58.86
2022-10-09T06:39:11.271Z,58.66
2022-10-09T06:41:37.645Z,58.21
2022-10-09T06:44:03.986Z,57.96
2022-10-09T06:46:30.430Z,57.49
2022-10-09T06:48:56.737Z,57.44
2022-10-09T06:51:23.078Z,57.19
2022-10-09T06:53:49.418Z,57.07
2022-10-09T06:56:15.767Z,56.77
2022-10-09T06:58:42.111Z,56.51
2022-10-09T07:01:08.487Z,58.36
2022-10-09T07:03:34.806Z,60.12
2022-10-09T07:06:01.119Z,58.78
2022-10-09T07:08:27.442Z,57.19
2022-10-09T07:10:53.786Z,56.28
2022-10-09T07:13:20.106Z,54.41
2022-10-09T07:15:46.475Z,52.47
2022-10-09T07:18:12.772Z,51.39
2022-10-09T07:20:39.091Z,51.20
2022-10-09T07:23:05.428Z,50.62
2022-10-09T07:25:31.788Z,50.62
2022-10-09T07:27:58.123Z,50.27
2022-10-09T07:30:24.463Z,49.81
2022-10-09T07:32:51.377Z,49.44
2022-10-09T07:35:17.145Z,49.17
2022-10-09T07:37:43.496Z,48.74
2022-10-09T07:40:09.821Z,48.56
2022-10-09T07:42:36.139Z,48.70
2022-10-09T07:45:02.512Z,48.63
2022-10-09T07:47:28.841Z,48.10
2022-10-09T07:49:55.187Z,47.23
2022-10-09T07:52:21.508Z,46.96
2022-10-09T07:54:47.849Z,47.51
2022-10-09T07:57:14.186Z,47.12
2022-10-09T07:59:40.543Z,46.97
2022-10-09T08:02:06.911Z,46.67
2022-10-09T08:04:33.207Z,45.86
2022-10-09T08:06:59.532Z,45.21
2022-10-09T08:09:25.907Z,45.18
2022-10-09T08:11:52.245Z,45.10
2022-10-09T08:14:19.580Z,45.02
2022-10-09T08:16:44.952Z,44.89
2022-10-09T08:19:11.306Z,44.33
2022-10-09T08:21:37.627Z,44.55
2022-10-09T08:24:03.954Z,44.28
2022-10-09T08:26:30.272Z,44.33
2022-10-09T08:28:56.597Z,43.77
2022-10-09T08:31:22.982Z,43.48
2022-10-09T08:33:49.255Z,43.34
2022-10-09T08:36:15.594Z,43.12
2022-10-09T08:38:49.131Z,42.73
2022-10-09T08:41:08.292Z,42.98
2022-10-09T08:43:34.613Z,43.10
2022-10-09T08:46:00.974Z,43.09
2022-10-09T08:48:27.294Z,43.10
2022-10-09T08:50:53.632Z,43.00
2022-10-09T08:53:19.970Z,42.60
2022-10-09T08:55:46.343Z,42.70
2022-10-09T08:58:12.662Z,42.34
2022-10-09T09:00:39.016Z,41.91
2022-10-09T09:03:05.388Z,41.61
2022-10-09T09:05:31.791Z,41.21
2022-10-09T09:07:58.118Z,40.81
2022-10-09T09:10:24.458Z,40.38
2022-10-09T09:12:51.423Z,39.69
2022-10-09T09:15:17.137Z,39.46
2022-10-09T09:17:43.485Z,39.59
2022-10-09T09:20:09.823Z,39.22
2022-10-09T09:22:36.159Z,38.84
2022-10-09T09:25:02.491Z,38.48
2022-10-09T09:27:28.816Z,38.18
2022-10-09T09:29:55.152Z,38.75
2022-10-09T09:32:21.554Z,40.84
2022-10-09T09:34:47.879Z,41.45
2022-10-09T09:37:14.218Z,43.26
2022-10-09T09:42:06.923Z,45.83
2022-10-09T09:44:33.241Z,46.96
2022-10-09T09:46:59.593Z,47.66
2022-10-09T09:49:25.945Z,49.36
2022-10-09T09:51:52.286Z,52.05
2022-10-09T09:54:18.622Z,52.89
2022-10-09T09:57:12.936Z,53.80
2022-10-09T09:59:11.317Z,54.43
2022-10-09T10:01:37.710Z,53.80
2022-10-09T10:04:03.975Z,54.52
2022-10-09T10:06:30.319Z,52.74
2022-10-09T10:08:56.667Z,51.75
2022-10-09T10:11:23.045Z,52.93
2022-10-09T10:13:49.384Z,53.99
2022-10-09T10:16:15.792Z,53.28
2022-10-09T10:18:42.079Z,54.33
2022-10-09T10:21:08.403Z,54.19
2022-10-09T10:23:34.744Z,52.53
2022-10-09T10:26:01.082Z,52.58
2022-10-09T10:28:27.462Z,51.92
2022-10-09T10:30:53.764Z,50.44
2022-10-09T10:33:20.130Z,50.46
2022-10-09T10:35:46.533Z,49.91
2022-10-09T10:38:12.880Z,49.69
2022-10-09T10:40:39.206Z,49.83
2022-10-09T10:43:05.526Z,51.32
2022-10-09T10:45:31.854Z,49.49
2022-10-09T10:47:58.209Z,49.12
2022-10-09T10:50:24.552Z,48.22
2022-10-09T10:52:50.918Z,48.50
2022-10-09T10:55:17.267Z,45.46
2022-10-09T10:57:43.600Z,43.88
2022-10-09T11:00:09.949Z,44.68
2022-10-09T11:02:40.948Z,44.95
2022-10-09T11:05:02.624Z,44.39
2022-10-09T11:07:28.944Z,42.74
2022-10-09T11:09:55.269Z,43.07
2022-10-09T11:12:43.389Z,42.66
2022-10-09T11:14:48.023Z,40.89
2022-10-09T11:17:14.368Z,41.00
2022-10-09T11:19:45.248Z,39.75
2022-10-09T11:22:07.084Z,40.15
2022-10-09T11:24:33.406Z,41.85
2022-10-09T11:27:03.376Z,41.63
2022-10-09T11:29:26.088Z,42.01
2022-10-09T11:31:52.488Z,41.59
2022-10-09T11:34:18.779Z,39.29
2022-10-09T11:36:45.128Z,39.67
2022-10-09T11:39:11.453Z,40.19
2022-10-09T11:41:37.797Z,39.99
2022-10-09T11:44:04.153Z,40.18
2022-10-09T11:46:30.492Z,39.64
2022-10-09T11:48:56.819Z,40.07
2022-10-09T11:51:23.161Z,39.49
2022-10-09T11:53:49.500Z,39.47
2022-10-09T11:56:15.814Z,39.11
2022-10-09T11:58:42.143Z,39.23
2022-10-09T12:01:08.593Z,38.04
2022-10-09T12:03:34.878Z,38.47
2022-10-09T12:06:01.230Z,35.61
2022-10-09T12:08:27.607Z,35.38
2022-10-09T12:10:53.916Z,36.88
2022-10-09T12:13:20.276Z,36.84
2022-10-09T12:15:46.629Z,37.91
2022-10-09T12:18:12.924Z,37.88
2022-10-09T12:20:39.246Z,37.95
2022-10-09T12:23:25.881Z,37.75
2022-10-09T12:25:31.905Z,37.27
2022-10-09T12:27:58.245Z,37.02
2022-10-09T12:30:24.621Z,37.67
2022-10-09T12:32:51.287Z,36.74
2022-10-09T12:35:17.287Z,36.39
2022-10-09T12:37:43.687Z,36.49
2022-10-09T12:40:10.023Z,37.09
2022-10-09T12:42:36.371Z,37.50
2022-10-09T12:45:02.724Z,37.81
2022-10-09T12:47:29.047Z,38.11
2022-10-09T12:49:55.379Z,37.06
2022-10-09T12:52:21.710Z,36.43
2022-10-09T12:54:48.064Z,36.25
2022-10-09T12:57:14.426Z,36.18
2022-10-09T12:59:40.738Z,35.88
2022-10-09T13:02:07.264Z,35.81
2022-10-09T13:04:33.455Z,35.89
2022-10-09T13:06:59.806Z,35.99
2022-10-09T13:09:26.146Z,35.75
2022-10-09T13:11:52.535Z,35.89
2022-10-09T13:14:18.849Z,36.05
2022-10-09T13:16:45.237Z,35.87
2022-10-09T13:19:11.534Z,36.04
2022-10-09T13:21:37.882Z,36.10
2022-10-09T13:24:04.217Z,36.35
2022-10-09T13:26:30.580Z,36.48
2022-10-09T13:28:56.901Z,36.76
2022-10-09T13:31:23.225Z,36.78
2022-10-09T13:33:49.568Z,36.98
2022-10-09T13:36:15.911Z,37.71
2022-10-09T13:38:42.228Z,37.57
2022-10-09T13:41:08.556Z,37.77
2022-10-09T13:43:34.879Z,38.06
2022-10-09T13:46:01.240Z,37.92
2022-10-09T13:48:27.580Z,38.43
2022-10-09T13:50:53.920Z,38.50
2022-10-09T13:53:20.252Z,38.72
2022-10-09T13:55:46.609Z,38.98
2022-10-09T13:58:12.959Z,39.03
2022-10-09T14:00:39.282Z,39.18
2022-10-09T14:03:05.617Z,39.28
2022-10-09T14:05:31.966Z,40.17
2022-10-09T14:07:58.416Z,39.97
2022-10-09T14:10:24.749Z,40.00
2022-10-09T14:12:51.623Z,40.41
2022-10-09T14:15:17.430Z,40.36
2022-10-09T14:17:43.776Z,40.60
2022-10-09T14:20:10.106Z,40.34
2022-10-09T14:22:36.424Z,40.81
2022-10-09T14:25:02.776Z,40.75
2022-10-09T14:27:29.134Z,41.25
2022-10-09T14:29:57.319Z,41.75
2022-10-09T14:32:21.804Z,42.54
2022-10-09T14:34:48.156Z,43.12
2022-10-09T14:37:24.062Z,43.41
2022-10-09T14:39:40.818Z,43.46
2022-10-09T14:42:07.152Z,43.55
2022-10-09T14:44:33.483Z,43.64
2022-10-09T14:46:59.822Z,44.20
2022-10-09T14:49:26.165Z,44.45
2022-10-09T14:51:52.551Z,44.72
2022-10-09T14:54:18.874Z,44.97
2022-10-09T14:56:45.253Z,45.02
2022-10-09T14:59:11.593Z,45.32
2022-10-09T15:01:37.918Z,45.38
2022-10-09T15:04:04.343Z,45.73
2022-10-09T15:06:30.595Z,45.96
2022-10-09T15:08:59.242Z,46.21
2022-10-09T15:11:23.283Z,46.61
2022-10-09T15:13:49.584Z,46.74
2022-10-09T15:16:15.910Z,47.06
2022-10-09T15:18:42.258Z,47.26
2022-10-09T15:21:08.601Z,47.40
2022-10-09T15:23:34.923Z,47.38
2022-10-09T15:26:01.247Z,47.69
2022-10-09T15:28:27.667Z,47.96
2022-10-09T15:30:53.945Z,49.05
2022-10-09T15:33:20.284Z,49.57
2022-10-09T15:35:46.610Z,49.79
2022-10-09T15:38:12.950Z,49.89
2022-10-09T15:40:39.287Z,50.10
2022-10-09T15:43:05.614Z,50.37
2022-10-09T15:45:31.930Z,50.53
2022-10-09T15:47:58.277Z,50.70
2022-10-09T15:50:24.595Z,50.92
2022-10-09T15:52:51.231Z,51.14
2022-10-09T15:55:17.301Z,51.09
2022-10-09T15:57:43.656Z,50.98
2022-10-09T16:00:10.031Z,51.46
2022-10-09T16:02:36.382Z,51.46
2022-10-09T16:05:02.707Z,51.82
2022-10-09T16:07:29.041Z,52.14
2022-10-09T16:09:55.376Z,52.31
2022-10-09T16:12:21.689Z,52.43
2022-10-09T16:14:48.076Z,52.67
2022-10-09T16:17:14.391Z,52.85
2022-10-09T16:19:40.715Z,52.85
2022-10-09T16:22:07.108Z,52.96
2022-10-09T16:24:33.471Z,53.07
2022-10-09T16:26:59.831Z,53.11
2022-10-09T16:29:26.182Z,53.11
2022-10-09T16:31:52.502Z,53.49
2022-10-09T16:34:18.881Z,53.29
2022-10-09T16:36:45.190Z,53.40
2022-10-09T16:39:11.537Z,53.59
2022-10-09T16:41:41.789Z,53.85
2022-10-09T16:44:04.216Z,53.82
2022-10-09T16:46:30.681Z,55.00
2022-10-09T16:48:56.977Z,55.02
2022-10-09T16:51:23.325Z,54.68
2022-10-09T16:53:49.696Z,54.79
2022-10-09T16:56:16.017Z,54.98
2022-10-09T16:58:42.340Z,55.10
2022-10-09T17:01:10.207Z,55.28
2022-10-09T17:03:35.005Z,55.60
2022-10-09T17:06:01.320Z,55.85
2022-10-09T17:08:27.722Z,55.83
2022-10-09T17:10:54.189Z,55.74
2022-10-09T17:13:20.535Z,55.93
2022-10-09T17:15:46.881Z,56.00
2022-10-09T17:18:13.199Z,55.99
2022-10-09T17:20:39.526Z,56.15
2022-10-09T17:23:05.848Z,56.20
2022-10-09T17:25:32.170Z,56.51
2022-10-09T17:27:58.529Z,56.64
2022-10-09T17:30:24.862Z,56.63
2022-10-09T17:32:51.611Z,56.73
2022-10-09T17:35:17.564Z,56.80
2022-10-09T17:37:43.884Z,56.74
2022-10-09T17:40:10.227Z,56.97
2022-10-09T17:42:36.565Z,57.09
2022-10-09T17:45:02.890Z,57.13
2022-10-09T17:47:29.211Z,57.91
2022-10-09T17:49:55.527Z,58.06
2022-10-09T17:52:21.857Z,58.06
2022-10-09T17:54:48.177Z,58.23
2022-10-09T17:57:14.561Z,58.37
2022-10-09T17:59:40.889Z,58.34
2022-10-09T18:02:07.245Z,58.44
2022-10-09T18:04:33.577Z,58.54
2022-10-09T18:06:59.910Z,58.70
2022-10-09T18:09:26.283Z,58.94
2022-10-09T18:11:52.624Z,59.03
2022-10-09T18:14:18.942Z,59.15
2022-10-09T18:16:45.300Z,59.22
2022-10-09T18:19:11.620Z,59.41
2022-10-09T18:21:37.945Z,59.48
2022-10-09T18:24:04.287Z,59.58
2022-10-09T18:26:30.608Z,59.68
2022-10-09T18:28:56.947Z,59.82
2022-10-09T18:31:23.271Z,59.87
2022-10-09T18:33:49.671Z,59.99
2022-10-09T18:36:16.010Z,59.94
2022-10-09T18:38:42.348Z,59.94
2022-10-09T18:41:08.673Z,60.07
2022-10-09T18:43:34.990Z,60.27
2022-10-09T18:46:01.367Z,60.35
2022-10-09T18:48:27.707Z,60.40
2022-10-09T18:50:54.051Z,60.39
2022-10-09T18:53:20.436Z,60.45
2022-10-09T18:55:46.803Z,60.61
2022-10-09T18:58:13.142Z,60.76
2022-10-09T19:00:39.531Z,61.02
2022-10-09T19:03:05.805Z,61.02
2022-10-09T19:05:32.155Z,61.13
2022-10-09T19:07:58.474Z,61.35
2022-10-09T19:10:24.802Z,61.39
2022-10-09T19:12:51.168Z,61.48
2022-10-09T19:15:17.495Z,61.66
2022-10-09T19:17:43.835Z,61.79
2022-10-09T19:20:10.199Z,61.78
2022-10-09T19:22:36.561Z,61.72
2022-10-09T19:25:02.902Z,61.87
2022-10-09T19:27:29.246Z,61.98
2022-10-09T19:29:55.573Z,62.09
2022-10-09T19:32:23.905Z,62.21
2022-10-09T19:34:48.263Z,62.34
2022-10-09T19:37:14.582Z,62.28
2022-10-09T19:39:40.939Z,62.67
2022-10-09T19:42:07.275Z,62.87
2022-10-09T19:44:33.594Z,62.73
2022-10-09T19:46:59.946Z,62.83
2022-10-09T19:49:26.276Z,62.89
2022-10-09T19:51:52.592Z,62.93
2022-10-09T19:54:19.002Z,62.95
2022-10-09T19:56:45.307Z,63.09
2022-10-09T19:59:11.627Z,63.29
2022-10-09T20:01:38.096Z,63.54
2022-10-09T20:04:04.296Z,63.58
2022-10-09T20:06:30.636Z,63.76
2022-10-09T20:08:56.960Z,63.85
2022-10-09T20:11:23.315Z,63.96
2022-10-09T20:13:53.437Z,64.13
2022-10-09T20:16:15.981Z,64.38
2022-10-09T20:18:42.529Z,64.22
2022-10-09T20:21:08.639Z,64.38
2022-10-09T20:23:35.029Z,64.50
2022-10-09T20:26:01.365Z,64.42
2022-10-09T20:28:27.770Z,64.35
2022-10-09T20:30:54.039Z,64.30
2022-10-09T20:33:20.362Z,64.49
2022-10-09T20:35:46.700Z,64.58
2022-10-09T20:38:13.073Z,64.70
2022-10-09T20:40:39.407Z,64.72
2022-10-09T20:43:05.747Z,64.92
2022-10-09T20:45:32.062Z,64.89
2022-10-09T20:47:58.386Z,64.94
2022-10-09T20:50:24.729Z,65.13
2022-10-09T20:52:51.345Z,65.38
2022-10-09T20:55:17.435Z,65.43
2022-10-09T20:57:44.882Z,65.50
2022-10-09T21:00:11.219Z,65.59
2022-10-09T21:02:37.564Z,65.42
2022-10-09T21:05:03.886Z,65.53
2022-10-09T21:07:30.262Z,65.70
2022-10-09T21:09:56.598Z,65.91
2022-10-09T21:12:22.938Z,66.04
2022-10-09T21:14:49.330Z,66.18
2022-10-09T21:17:15.659Z,66.22
2022-10-09T21:19:41.992Z,66.16
2022-10-09T21:22:08.340Z,66.18
2022-10-09T21:24:34.703Z,66.18
2022-10-09T21:27:01.043Z,66.33
2022-10-09T21:29:27.687Z,66.23
2022-10-09T21:31:54.036Z,66.19
2022-10-09T21:34:20.354Z,66.57
2022-10-09T21:37:08.884Z,66.71
2022-10-09T21:39:13.067Z,66.67
2022-10-09T21:41:39.407Z,66.97
2022-10-09T21:44:05.742Z,66.93
2022-10-09T21:46:32.083Z,67.00
2022-10-09T21:48:58.429Z,67.11
2022-10-09T21:51:24.773Z,67.21
2022-10-09T21:53:51.108Z,67.28
2022-10-09T21:56:17.472Z,67.42
2022-10-09T21:58:48.758Z,67.62
2022-10-09T22:01:10.154Z,67.73
2022-10-09T22:03:36.428Z,67.87
2022-10-09T22:06:02.753Z,67.93
2022-10-09T22:08:29.093Z,67.99
2022-10-09T22:10:55.453Z,68.05
2022-10-09T22:13:21.791Z,68.22
2022-10-09T22:15:51.192Z,68.23
2022-10-09T22:18:14.492Z,68.11
2022-10-09T22:20:40.813Z,68.21
2022-10-09T22:23:07.149Z,68.38
2022-10-09T22:25:33.519Z,68.37
2022-10-09T22:27:59.856Z,68.49
2022-10-09T22:30:26.181Z,68.48
2022-10-09T22:32:52.922Z,68.65
2022-10-09T22:35:18.879Z,68.90
2022-10-09T22:37:45.213Z,69.00
2022-10-09T22:40:11.575Z,69.27
2022-10-09T22:42:37.896Z,69.25
2022-10-09T22:45:04.217Z,69.35
2022-10-09T22:47:30.576Z,69.42
2022-10-09T22:49:56.899Z,69.61
2022-10-09T22:52:23.225Z,69.74
2022-10-09T22:54:49.569Z,69.52
2022-10-09T22:57:15.943Z,69.70
2022-10-09T22:59:42.262Z,69.70
2022-10-09T23:02:08.613Z,69.93
2022-10-09T23:04:34.981Z,69.76
2022-10-09T23:07:01.298Z,69.18
2022-10-09T23:09:27.628Z,68.92
2022-10-09T23:11:54.006Z,68.87
2022-10-09T23:14:20.323Z,69.03
2022-10-09T23:16:46.664Z,69.07
2022-10-09T23:19:13.010Z,68.77
2022-10-09T23:21:39.366Z,68.89
2022-10-09T23:24:05.690Z,68.81
2022-10-09T23:26:32.008Z,68.98
2022-10-09T23:28:58.374Z,68.75
2022-10-09T23:31:24.700Z,68.72
2022-10-09T23:33:51.045Z,68.55
2022-10-09T23:36:17.401Z,68.69
2022-10-09T23:38:43.747Z,68.50
2022-10-09T23:41:10.083Z,68.23
2022-10-09T23:43:36.431Z,68.24
2022-10-09T23:46:02.762Z,68.29
2022-10-09T23:48:29.121Z,68.34
2022-10-09T23:50:55.436Z,68.21
2022-10-09T23:53:21.779Z,68.37
2022-10-09T23:55:48.126Z,68.35
2022-10-09T23:58:18.520Z,68.40
